首页
METAR-TAF:

METAR-TAF

机场 :

迈克蒂亚西蒙·玻利瓦尔国际机场

卡拉卡斯, 委内瑞拉

纬度: 10-36N, 经度: 066-59W, 海拔: 43米

当前天气观测

该预报发布于50分钟前的23:00 UTC
静风
温度 25°C
湿度 89%
气压 1008 hPa
能见度10公里或以上
多云层高于1300英尺

METAR: SVMI 212300Z 00000KT 9999 BKN013 25/23 Q1008 RE RA

时间: 19:50 (23:50 UTC)

预报

该预报发布于1小时和50分钟前的22:00 UTC
预报有效从22日的 00点(UTC)到 23日的 00点(UTC)
风速2节,风向
能见度10公里或以上
多云层高于1600英尺
散云层高于7000英尺
成为
从 22日的 00点(UTC)到 22日的 04点(UTC)
多云层高于1300英尺
从 22日的 0700点(UTC)
风速节,风向
能见度10公里或以上
少量云层高于1300英尺
散云层高于9000英尺

TAF: SVMI 212200Z 2200/2300 36002KT 9999 BKN016 SCT070 TX34/17Z TN25/10Z BECMG 2200/2204 BKN013 FM220700 00000KT 9999 FEW013 SCT090

超过4000个机场的气象观测和天气预报(METAR&TAF报告)。

可查询的气象台以黄色和红色小点在地图上表示。

将鼠标移到小点上方,可查看气象台名称。

然后点击查看天气观测和预报。

如需切换地图:点击带黑十字的绿色按钮放大地图;点击带横线的绿色按钮缩小地图;或者点击绿色箭头查看邻近地区的地图。


METAR-TAF: